createdAt,value
2023-04-07T00:02:38.293Z,10.61
2023-04-07T00:05:24.807Z,10.48
2023-04-07T00:08:11.250Z,10.62
2023-04-07T00:10:58.405Z,10.33
2023-04-07T00:13:46.004Z,10.54
2023-04-07T00:16:32.322Z,10.48
2023-04-07T00:19:18.666Z,10.41
2023-04-07T00:22:04.990Z,10.60
2023-04-07T00:24:51.212Z,10.25
2023-04-07T00:27:37.572Z,10.14
2023-04-07T00:30:25.000Z,10.02
2023-04-07T00:33:11.394Z,9.77
2023-04-07T00:35:58.771Z,10.05
2023-04-07T00:38:45.290Z,10.17
2023-04-07T00:41:31.545Z,10.12
2023-04-07T00:44:18.236Z,10.13
2023-04-07T00:47:06.232Z,9.84
2023-04-07T00:49:52.921Z,10.01
2023-04-07T00:52:39.174Z,9.82
2023-04-07T00:55:25.272Z,9.68
2023-04-07T00:58:11.787Z,9.71
2023-04-07T01:01:08.299Z,9.81
2023-04-07T01:04:02.457Z,9.93
2023-04-07T01:06:52.418Z,10.09
2023-04-07T01:09:49.102Z,10.15
2023-04-07T01:12:41.031Z,9.90
2023-04-07T01:15:31.085Z,10.48
2023-04-07T01:18:23.149Z,10.35
2023-04-07T01:21:15.063Z,10.55
2023-04-07T01:24:30.013Z,10.89
2023-04-07T01:27:22.857Z,10.93
2023-04-07T01:30:13.617Z,10.56
2023-04-07T01:33:02.669Z,10.17
2023-04-07T01:35:51.277Z,10.47
2023-04-07T01:38:38.727Z,11.01
2023-04-07T01:41:26.365Z,11.08
2023-04-07T01:44:13.705Z,11.39
2023-04-07T01:47:03.199Z,11.24
2023-04-07T01:49:51.478Z,11.00
2023-04-07T01:52:38.994Z,10.71
2023-04-07T01:55:26.575Z,10.53
2023-04-07T01:58:22.083Z,10.76
2023-04-07T02:01:08.873Z,10.36
2023-04-07T02:04:07.717Z,10.54
2023-04-07T02:07:02.939Z,10.29
2023-04-07T02:09:57.505Z,10.29
2023-04-07T02:12:47.119Z,10.09
2023-04-07T02:15:38.086Z,10.03
2023-04-07T02:18:26.195Z,9.96
2023-04-07T02:21:15.474Z,10.00
2023-04-07T02:24:07.384Z,10.12
2023-04-07T02:26:53.769Z,10.00
2023-04-07T02:29:39.819Z,10.05
2023-04-07T02:32:26.227Z,9.83
2023-04-07T02:35:12.656Z,9.94
2023-04-07T02:38:00.418Z,10.00
2023-04-07T02:40:46.689Z,10.01
2023-04-07T02:43:32.753Z,10.21
2023-04-07T02:46:19.113Z,10.60
2023-04-07T02:49:05.755Z,10.78
2023-04-07T02:51:52.082Z,10.78
2023-04-07T02:54:39.652Z,10.96
2023-04-07T02:57:27.204Z,10.88
2023-04-07T03:00:17.460Z,10.79
2023-04-07T03:03:14.609Z,10.65
2023-04-07T03:06:07.596Z,10.52
2023-04-07T03:08:59.144Z,10.10
2023-04-07T03:11:47.029Z,10.38
2023-04-07T03:14:33.448Z,10.04
2023-04-07T03:17:21.270Z,10.20
2023-04-07T03:20:09.281Z,10.39
2023-04-07T03:22:57.250Z,10.31
2023-04-07T03:25:48.609Z,10.12
2023-04-07T03:28:37.038Z,10.15
2023-04-07T03:31:23.955Z,10.40
2023-04-07T03:34:12.371Z,10.27
2023-04-07T03:36:58.896Z,10.41
2023-04-07T03:39:45.638Z,10.45
2023-04-07T03:42:44.363Z,10.13
2023-04-07T03:45:35.712Z,10.47
2023-04-07T03:48:22.464Z,10.15
2023-04-07T03:51:18.516Z,9.95
2023-04-07T03:54:06.835Z,10.23
2023-04-07T03:56:58.277Z,10.00
2023-04-07T03:59:46.053Z,10.21
2023-04-07T04:02:33.897Z,10.37
2023-04-07T04:05:20.084Z,9.85
2023-04-07T04:08:07.953Z,9.83
2023-04-07T04:10:58.289Z,9.86
2023-04-07T04:13:50.359Z,9.61
2023-04-07T04:16:37.370Z,9.53
2023-04-07T04:19:31.722Z,9.27
2023-04-07T04:22:21.902Z,9.41
2023-04-07T04:25:11.825Z,9.56
2023-04-07T04:28:00.158Z,9.47
2023-04-07T04:30:46.746Z,9.45
2023-04-07T04:33:33.353Z,9.50
2023-04-07T04:36:21.077Z,9.35
2023-04-07T04:39:08.814Z,9.42
2023-04-07T04:41:56.580Z,9.83
2023-04-07T04:44:49.884Z,9.12
2023-04-07T04:47:38.926Z,8.97
2023-04-07T04:50:25.749Z,8.95
2023-04-07T04:53:13.965Z,8.96
2023-04-07T04:56:11.226Z,8.75
2023-04-07T04:59:06.841Z,8.81
2023-04-07T05:02:01.488Z,8.76
2023-04-07T05:04:48.158Z,8.80
2023-04-07T05:07:47.572Z,8.81
2023-04-07T05:10:39.549Z,8.59
2023-04-07T05:13:30.684Z,8.85
2023-04-07T05:16:20.184Z,9.02
2023-04-07T05:19:07.101Z,8.80
2023-04-07T05:21:53.416Z,9.11
2023-04-07T05:24:41.588Z,9.06
2023-04-07T05:27:29.557Z,9.15
2023-04-07T05:30:21.761Z,9.13
2023-04-07T05:33:08.368Z,9.29
2023-04-07T05:36:10.119Z,9.23
2023-04-07T05:38:58.459Z,9.56
2023-04-07T05:41:45.727Z,9.77
2023-04-07T05:44:34.121Z,9.77
2023-04-07T05:47:20.615Z,10.39
2023-04-07T05:50:12.175Z,10.88
2023-04-07T05:52:59.156Z,11.16
2023-04-07T05:55:46.716Z,11.46
2023-04-07T05:58:42.159Z,11.27
2023-04-07T06:01:31.172Z,11.30
2023-04-07T06:04:17.561Z,11.40
2023-04-07T06:07:06.069Z,11.29
2023-04-07T06:09:52.659Z,11.53
2023-04-07T06:12:38.595Z,11.38
2023-04-07T06:15:25.576Z,11.22
2023-04-07T06:18:13.351Z,11.11
2023-04-07T06:20:59.410Z,10.37
2023-04-07T06:23:45.941Z,10.63
2023-04-07T06:26:32.526Z,10.72
2023-04-07T06:29:18.883Z,10.67
2023-04-07T06:32:05.301Z,10.98
2023-04-07T06:34:52.731Z,10.89
2023-04-07T06:37:40.433Z,11.20
2023-04-07T06:40:26.513Z,10.93
2023-04-07T06:43:13.061Z,10.91
2023-04-07T06:46:09.777Z,11.09
2023-04-07T06:48:56.413Z,11.36
2023-04-07T06:51:44.143Z,11.40
2023-04-07T06:54:30.334Z,11.08
2023-04-07T06:57:17.482Z,10.94
2023-04-07T07:00:04.274Z,11.05
2023-04-07T07:02:50.951Z,10.65
2023-04-07T07:05:37.210Z,10.69
2023-04-07T07:08:24.950Z,10.70
2023-04-07T07:11:11.841Z,10.46
2023-04-07T07:13:58.120Z,10.61
2023-04-07T07:16:44.218Z,10.47
2023-04-07T07:19:30.325Z,10.78
2023-04-07T07:22:16.783Z,10.61
2023-04-07T07:25:05.060Z,10.28
2023-04-07T07:27:53.283Z,10.70
2023-04-07T07:30:40.655Z,10.87
2023-04-07T07:33:27.481Z,10.93
2023-04-07T07:36:13.991Z,11.13
2023-04-07T07:39:00.857Z,10.96
2023-04-07T07:41:48.300Z,10.94
2023-04-07T07:44:34.630Z,11.31
2023-04-07T07:47:21.104Z,11.14
2023-04-07T07:50:08.109Z,11.00
2023-04-07T07:52:54.414Z,11.14
2023-04-07T07:55:40.980Z,11.28
2023-04-07T07:58:28.501Z,10.97
2023-04-07T08:01:14.774Z,11.12
2023-04-07T08:04:01.411Z,11.17
2023-04-07T08:06:47.881Z,11.27
2023-04-07T08:09:34.307Z,11.45
2023-04-07T08:12:20.913Z,11.25
2023-04-07T08:15:10.348Z,11.18
2023-04-07T08:17:56.863Z,11.37
2023-04-07T08:20:43.692Z,10.99
2023-04-07T08:23:30.093Z,11.06
2023-04-07T08:26:16.391Z,11.34
2023-04-07T08:29:02.802Z,11.00
2023-04-07T08:31:50.507Z,11.11
2023-04-07T08:34:36.933Z,11.44
2023-04-07T08:37:23.547Z,11.43
2023-04-07T08:40:10.610Z,11.52
2023-04-07T08:42:59.904Z,11.29
2023-04-07T08:45:47.569Z,11.28
2023-04-07T08:48:36.422Z,11.35
2023-04-07T08:51:29.546Z,11.09
2023-04-07T08:54:18.857Z,11.31
2023-04-07T08:57:06.025Z,11.66
2023-04-07T08:59:52.693Z,11.80
2023-04-07T09:02:43.208Z,11.71
2023-04-07T09:05:35.563Z,11.82
2023-04-07T09:08:22.271Z,11.65
2023-04-07T09:11:08.604Z,11.92
2023-04-07T09:13:55.584Z,11.58
2023-04-07T09:16:42.726Z,12.07
2023-04-07T09:19:32.141Z,12.15
2023-04-07T09:22:35.969Z,12.06
2023-04-07T09:25:27.139Z,12.31
2023-04-07T09:28:13.765Z,12.24
2023-04-07T09:31:00.276Z,12.21
2023-04-07T09:33:47.337Z,12.33
2023-04-07T09:36:42.436Z,12.12
2023-04-07T09:39:30.626Z,11.92
2023-04-07T09:42:16.825Z,12.27
2023-04-07T09:45:03.772Z,12.73
2023-04-07T09:47:50.670Z,12.52
2023-04-07T09:50:40.988Z,12.27
2023-04-07T09:53:42.992Z,12.76
2023-04-07T09:56:31.149Z,13.21
2023-04-07T09:59:18.121Z,12.89
2023-04-07T10:02:04.951Z,13.53
2023-04-07T10:04:51.558Z,13.26
2023-04-07T10:07:38.061Z,12.59
2023-04-07T10:10:24.662Z,12.83
2023-04-07T10:13:13.280Z,12.95
2023-04-07T10:16:00.321Z,12.60
2023-04-07T10:18:47.254Z,12.55
2023-04-07T10:21:37.159Z,12.97
2023-04-07T10:24:37.697Z,12.71
2023-04-07T10:27:32.191Z,12.42
2023-04-07T10:30:25.025Z,12.33
2023-04-07T10:33:11.390Z,11.71
2023-04-07T10:36:05.638Z,11.83
2023-04-07T10:39:23.246Z,11.87
2023-04-07T10:42:48.330Z,12.33
2023-04-07T10:46:00.125Z,12.51
2023-04-07T10:49:09.705Z,12.73
2023-04-07T10:52:23.916Z,12.45
2023-04-07T10:55:34.914Z,12.05
2023-04-07T10:58:23.124Z,12.31
2023-04-07T11:01:32.345Z,11.90
2023-04-07T11:04:18.540Z,11.59
2023-04-07T11:07:04.883Z,11.71
2023-04-07T11:09:51.475Z,11.81
2023-04-07T11:12:37.505Z,11.93
2023-04-07T11:15:24.103Z,11.87
2023-04-07T11:18:17.392Z,12.07
2023-04-07T11:21:08.068Z,12.00
2023-04-07T11:23:54.316Z,11.82
2023-04-07T11:26:42.283Z,11.93
2023-04-07T11:29:30.355Z,11.96
2023-04-07T11:32:17.025Z,12.42
2023-04-07T11:35:07.681Z,12.43
2023-04-07T11:37:58.895Z,12.39
2023-04-07T11:40:45.393Z,12.73
2023-04-07T11:43:32.273Z,12.81
2023-04-07T11:46:19.770Z,12.52
2023-04-07T11:49:13.965Z,12.90
2023-04-07T11:52:03.302Z,12.85
2023-04-07T11:54:50.486Z,12.64
2023-04-07T11:57:36.651Z,12.64
2023-04-07T12:00:23.480Z,13.04
2023-04-07T12:03:16.082Z,12.22
2023-04-07T12:06:03.707Z,12.26
2023-04-07T12:08:51.202Z,12.50
2023-04-07T12:11:37.481Z,12.75
2023-04-07T12:14:23.937Z,12.95
2023-04-07T12:17:24.100Z,13.14
2023-04-07T12:20:12.038Z,13.50
2023-04-07T12:23:02.822Z,13.46
2023-04-07T12:25:55.709Z,13.03
2023-04-07T12:28:42.097Z,13.57
2023-04-07T12:31:28.919Z,13.27
2023-04-07T12:34:15.594Z,13.30
2023-04-07T12:37:02.056Z,13.29
2023-04-07T12:39:48.235Z,13.18
2023-04-07T12:42:35.746Z,12.53
2023-04-07T12:45:22.637Z,12.24
2023-04-07T12:48:09.731Z,12.61
2023-04-07T12:50:56.395Z,12.65
2023-04-07T12:53:42.901Z,12.34
2023-04-07T12:56:30.849Z,12.32
2023-04-07T12:59:18.613Z,12.23
2023-04-07T13:02:05.105Z,12.46
2023-04-07T13:04:51.631Z,12.91
2023-04-07T13:07:37.881Z,12.96
2023-04-07T13:10:24.409Z,12.19
2023-04-07T13:13:11.176Z,12.34
2023-04-07T13:15:58.907Z,12.60
2023-04-07T13:18:44.973Z,12.42
2023-04-07T13:24:21.517Z,11.95
2023-04-07T13:27:08.778Z,11.98
2023-04-07T13:29:54.942Z,12.03
2023-04-07T13:32:42.818Z,12.24
2023-04-07T13:35:30.274Z,12.75
2023-04-07T13:38:16.878Z,12.46
2023-04-07T13:41:04.017Z,11.99
2023-04-07T13:43:51.654Z,12.18
2023-04-07T13:46:38.295Z,12.11
2023-04-07T13:49:26.355Z,11.79
2023-04-07T13:52:13.501Z,11.70
2023-04-07T13:54:59.781Z,12.04
2023-04-07T13:57:46.386Z,12.17
2023-04-07T14:00:35.391Z,12.05
2023-04-07T14:03:22.581Z,12.34
2023-04-07T14:06:10.746Z,12.14
2023-04-07T14:08:57.358Z,12.03
2023-04-07T14:11:43.703Z,12.29
2023-04-07T14:14:30.369Z,12.09
2023-04-07T14:17:16.662Z,12.16
2023-04-07T14:20:03.920Z,12.40
2023-04-07T14:22:52.155Z,12.24
2023-04-07T14:25:38.262Z,12.64
2023-04-07T14:28:25.145Z,12.44
2023-04-07T14:31:16.264Z,12.69
2023-04-07T14:34:02.773Z,13.18
2023-04-07T14:36:56.043Z,13.04
2023-04-07T14:39:51.651Z,13.23
2023-04-07T14:42:46.315Z,13.07
2023-04-07T14:45:32.735Z,12.80
2023-04-07T14:48:18.686Z,12.38
2023-04-07T14:51:09.803Z,12.43
2023-04-07T14:53:57.718Z,12.20
2023-04-07T14:56:45.490Z,12.04
2023-04-07T14:59:31.984Z,12.08
2023-04-07T15:02:18.376Z,12.04
2023-04-07T15:05:05.796Z,12.31
2023-04-07T15:07:52.515Z,12.20
2023-04-07T15:10:39.254Z,11.98
2023-04-07T15:13:27.752Z,12.08
2023-04-07T15:16:16.113Z,12.02
2023-04-07T15:19:02.421Z,11.95
2023-04-07T15:21:48.842Z,12.07
2023-04-07T15:24:34.945Z,11.92
2023-04-07T15:27:21.060Z,12.16
2023-04-07T15:30:10.156Z,12.33
2023-04-07T15:33:00.448Z,12.49
2023-04-07T15:35:46.954Z,12.67
2023-04-07T15:38:33.399Z,13.11
2023-04-07T15:41:19.999Z,13.13
2023-04-07T15:44:06.693Z,12.68
2023-04-07T15:46:54.890Z,12.77
2023-04-07T15:49:42.327Z,12.51
2023-04-07T15:52:29.412Z,12.49
2023-04-07T15:55:15.591Z,12.83
2023-04-07T15:58:02.100Z,12.22
2023-04-07T16:00:53.196Z,11.62
2023-04-07T16:03:40.861Z,11.73
2023-04-07T16:06:30.013Z,11.07
2023-04-07T16:09:16.551Z,11.18
2023-04-07T16:12:05.500Z,11.25
2023-04-07T16:14:52.306Z,10.92
2023-04-07T16:17:40.425Z,10.89
2023-04-07T16:20:28.178Z,10.73
2023-04-07T16:23:14.967Z,10.66
2023-04-07T16:26:04.352Z,11.39
2023-04-07T16:28:50.617Z,11.78
2023-04-07T16:31:41.162Z,11.84
2023-04-07T16:34:27.942Z,12.14
2023-04-07T16:37:15.708Z,12.30
2023-04-07T16:40:02.042Z,11.80
2023-04-07T16:42:48.728Z,11.73
2023-04-07T16:45:35.231Z,11.69
2023-04-07T16:48:21.834Z,11.39
2023-04-07T16:51:13.984Z,11.23
2023-04-07T16:54:02.241Z,11.13
2023-04-07T16:56:50.430Z,11.31
2023-04-07T16:59:36.525Z,11.20
2023-04-07T17:02:22.843Z,10.91
2023-04-07T17:05:10.131Z,10.91
2023-04-07T17:07:57.361Z,11.46
2023-04-07T17:10:45.285Z,11.60
2023-04-07T17:13:31.272Z,11.73
2023-04-07T17:16:17.532Z,11.75
2023-04-07T17:19:03.852Z,12.13
2023-04-07T17:21:50.603Z,11.87
2023-04-07T17:24:37.175Z,11.63
2023-04-07T17:27:25.093Z,11.42
2023-04-07T17:30:12.469Z,11.28
2023-04-07T17:32:59.235Z,11.63
2023-04-07T17:35:47.440Z,11.03
2023-04-07T17:38:35.967Z,11.44
2023-04-07T17:41:22.703Z,11.55
2023-04-07T17:44:10.901Z,11.51
2023-04-07T17:46:56.937Z,11.14
2023-04-07T17:49:43.239Z,11.62
2023-04-07T17:52:30.453Z,11.49
2023-04-07T17:55:17.686Z,11.67
2023-04-07T17:58:04.088Z,11.40
2023-04-07T18:00:52.079Z,11.28
2023-04-07T18:03:39.108Z,10.49
2023-04-07T18:06:25.195Z,11.00
2023-04-07T18:09:11.509Z,10.82
2023-04-07T18:11:57.959Z,10.81
2023-04-07T18:14:46.884Z,10.80
2023-04-07T18:17:34.882Z,10.89
2023-04-07T18:20:21.525Z,10.98
2023-04-07T18:23:08.255Z,11.27
2023-04-07T18:25:54.710Z,11.53
2023-04-07T18:28:41.133Z,11.47
2023-04-07T18:31:27.622Z,11.81
2023-04-07T18:34:15.617Z,11.92
2023-04-07T18:37:01.931Z,11.80
2023-04-07T18:39:48.024Z,11.82
2023-04-07T18:42:34.279Z,11.71
2023-04-07T18:45:21.850Z,11.92
2023-04-07T18:48:08.301Z,11.86
2023-04-07T18:50:56.619Z,11.92
2023-04-07T18:53:43.240Z,11.95
2023-04-07T18:56:34.645Z,11.84
2023-04-07T18:59:21.219Z,11.15
2023-04-07T19:02:07.732Z,11.52
2023-04-07T19:04:54.223Z,11.70
2023-04-07T19:07:41.782Z,11.65
2023-04-07T19:10:28.085Z,11.50
2023-04-07T19:13:16.022Z,11.11
2023-04-07T19:16:03.093Z,11.05
2023-04-07T19:18:49.317Z,10.84
2023-04-07T19:21:35.923Z,10.77
2023-04-07T19:24:23.566Z,10.74
2023-04-07T19:27:12.041Z,10.50
2023-04-07T19:29:58.769Z,10.54
2023-04-07T19:32:45.435Z,10.44
2023-04-07T19:35:31.894Z,10.37
2023-04-07T19:38:18.452Z,10.45
2023-04-07T19:41:06.345Z,10.21
2023-04-07T19:43:53.241Z,10.13
2023-04-07T19:46:39.653Z,10.31
2023-04-07T19:49:25.968Z,10.49
2023-04-07T19:52:12.192Z,10.71
2023-04-07T19:54:58.353Z,10.58
2023-04-07T19:57:45.973Z,10.69
2023-04-07T20:00:33.533Z,10.63
2023-04-07T20:03:20.798Z,10.90
2023-04-07T20:06:07.370Z,11.06
2023-04-07T20:08:54.151Z,10.95
2023-04-07T20:11:40.444Z,11.03
2023-04-07T20:14:28.259Z,10.84
2023-04-07T20:17:14.793Z,11.20
2023-04-07T20:20:01.309Z,11.07
2023-04-07T20:22:47.968Z,10.92
2023-04-07T20:25:35.570Z,10.74
2023-04-07T20:28:21.982Z,10.98
2023-04-07T20:31:09.938Z,11.13
2023-04-07T20:33:56.467Z,11.70
2023-04-07T20:36:42.676Z,12.15
2023-04-07T20:39:29.049Z,12.11
2023-04-07T20:42:15.828Z,12.01
2023-04-07T20:45:04.680Z,12.36
2023-04-07T20:47:52.382Z,12.19
2023-04-07T20:50:38.760Z,12.16
2023-04-07T20:53:25.177Z,11.53
2023-04-07T20:56:11.961Z,11.42
2023-04-07T20:58:58.232Z,11.31
2023-04-07T21:01:44.881Z,11.11
2023-04-07T21:04:32.423Z,11.09
2023-04-07T21:07:18.864Z,10.98
2023-04-07T21:10:05.526Z,10.98
2023-04-07T21:12:51.850Z,10.98
2023-04-07T21:15:38.346Z,10.55
2023-04-07T21:18:24.949Z,10.78
2023-04-07T21:21:12.933Z,10.88
2023-04-07T21:23:59.583Z,10.95
2023-04-07T21:26:50.270Z,11.04
2023-04-07T21:29:36.637Z,11.17
2023-04-07T21:32:23.049Z,11.38
2023-04-07T21:35:10.443Z,11.72
2023-04-07T21:37:58.404Z,11.86
2023-04-07T21:40:44.939Z,11.68
2023-04-07T21:43:31.395Z,11.84
2023-04-07T21:46:18.113Z,11.68
2023-04-07T21:49:04.805Z,11.71
2023-04-07T21:51:51.280Z,11.74
2023-04-07T21:54:38.972Z,11.52
2023-04-07T21:57:25.312Z,11.45
2023-04-07T22:00:14.013Z,11.68
2023-04-07T22:03:04.717Z,11.68
2023-04-07T22:05:51.496Z,11.67
2023-04-07T22:08:37.845Z,11.74
2023-04-07T22:11:26.118Z,11.74
2023-04-07T22:14:13.044Z,11.70
2023-04-07T22:16:59.280Z,11.62
2023-04-07T22:19:45.352Z,11.56
2023-04-07T22:22:31.776Z,11.19
2023-04-07T22:25:18.310Z,11.26
2023-04-07T22:28:06.014Z,11.19
2023-04-07T22:30:52.415Z,11.32
2023-04-07T22:33:38.721Z,11.15
2023-04-07T22:36:24.845Z,11.11
2023-04-07T22:39:11.558Z,11.31
2023-04-07T22:41:57.850Z,11.28
2023-04-07T22:44:45.216Z,11.59
2023-04-07T22:47:31.638Z,11.53
2023-04-07T22:50:17.940Z,11.13
2023-04-07T22:53:04.048Z,11.26
2023-04-07T22:55:50.590Z,11.24
2023-04-07T22:58:36.966Z,11.14
2023-04-07T23:01:25.051Z,11.07
2023-04-07T23:04:11.505Z,10.87
2023-04-07T23:06:57.706Z,10.95
2023-04-07T23:09:44.111Z,11.32
2023-04-07T23:12:31.420Z,11.30
2023-04-07T23:15:18.511Z,11.48
2023-04-07T23:18:06.437Z,11.70
2023-04-07T23:20:53.001Z,11.41
2023-04-07T23:23:39.551Z,11.23
2023-04-07T23:26:26.650Z,11.02
2023-04-07T23:29:13.123Z,11.09
2023-04-07T23:31:59.310Z,11.01
2023-04-07T23:34:47.242Z,11.16
2023-04-07T23:37:33.609Z,11.18
2023-04-07T23:40:20.378Z,11.13
2023-04-07T23:43:06.519Z,11.02
2023-04-07T23:45:52.969Z,10.74
2023-04-07T23:48:39.577Z,10.60
2023-04-07T23:51:27.645Z,10.63
2023-04-07T23:54:13.884Z,10.35
2023-04-07T23:57:01.564Z,10.15
2023-04-07T23:59:47.674Z,10.15
